Terminal Aerodrome Forecast
Issued by NWS

Home | Current Version | Previous Version | Graphics & Text | Print | Product List | Glossary On
Versions: 1 2 3 4 5 6 7 8 9 10 11 12 13 14 15 16 17 18 19 20 21 22 23 24
000
FTUS43 KLOT 232324
TAFGYY
TAF
KGYY 232324Z 2400/2424 20005KT P6SM FEW250
     FM241400 20013G21KT P6SM SCT120 SCT180
     FM241800 20017G29KT P6SM SCT080 SCT120=

USA.gov is the U.S. government's official web portal to all federal, state and local government web resources and services.